Time;durP1;ratioP1;P1;durP2;ratioP2;P2;SDS_P1;SDS_P2;PMS_P1;PMS_P2;Temp;Humidity;BMP_temperature;BMP_pressure;BME280_temperature;BME280_humidity;BME280_pressure;Samples;Min_cycle;Max_cycle;Signal;HPM_P1;HPM_P2
2021/09/29 00:00:13;;;;;;;7.03;3.72;;;;;;;;;;5107475;28;20028;-89
2021/09/29 00:02:39;;;;;;;10.68;3.95;;;;;;;;;;5073696;28;20123;-90
2021/09/29 00:05:04;;;;;;;11.73;4.15;;;;;;;;;;5073661;28;20360;-90
2021/09/29 00:07:29;;;;;;;10.07;3.25;;;;;;;;;;5090793;28;20016;-89
2021/09/29 00:09:55;;;;;;;7.88;2.80;;;;;;;;;;5075557;28;20111;-90
2021/09/29 00:12:21;;;;;;;7.35;3.17;;;;;;;;;;5077009;28;20079;-89
2021/09/29 00:14:46;;;;;;;10.55;3.42;;;;;;;;;;5095347;28;20413;-89
2021/09/29 00:17:11;;;;;;;7.13;3.33;;;;;;;;;;5076658;28;20027;-90
2021/09/29 00:19:37;;;;;;;10.88;3.65;;;;;;;;;;5077528;28;20020;-90
2021/09/29 00:22:02;;;;;;;9.90;3.80;;;;;;;;;;5095425;28;20012;-89
2021/09/29 00:24:27;;;;;;;7.82;3.38;;;;;;;;;;5076890;28;20008;-89
2021/09/29 00:26:52;;;;;;;8.75;3.67;;;;;;;;;;5076487;28;20020;-89
2021/09/29 00:29:18;;;;;;;7.50;3.60;;;;;;;;;;5076773;28;20024;-90
2021/09/29 00:31:43;;;;;;;6.72;2.85;;;;;;;;;;5076637;28;20404;-89
2021/09/29 00:34:13;;;;;;;7.05;3.30;;;;;;;;;;5076943;28;20548;-89
2021/09/29 00:36:40;;;;;;;7.50;3.25;;;;;;;;;;5076418;28;20501;-90
2021/09/29 00:39:06;;;;;;;8.45;3.38;;;;;;;;;;5094463;28;20095;-90
2021/09/29 00:41:31;;;;;;;8.85;3.47;;;;;;;;;;5076974;28;20101;-89
2021/09/29 00:43:56;;;;;;;7.72;3.40;;;;;;;;;;5076304;28;20080;-89
2021/09/29 00:46:21;;;;;;;13.55;3.25;;;;;;;;;;5075229;28;20379;-89
2021/09/29 00:48:47;;;;;;;8.95;3.53;;;;;;;;;;5075771;28;20020;-89
2021/09/29 00:51:12;;;;;;;8.45;3.05;;;;;;;;;;5110552;28;20592;-90
2021/09/29 00:53:37;;;;;;;7.30;3.42;;;;;;;;;;5076417;28;20031;-89
2021/09/29 00:56:03;;;;;;;8.48;3.00;;;;;;;;;;5094639;28;20454;-89
2021/09/29 00:58:28;;;;;;;9.80;3.05;;;;;;;;;;5076090;28;20376;-90
2021/09/29 01:00:54;;;;;;;7.45;2.88;;;;;;;;;;5076241;28;20089;-89
2021/09/29 01:03:19;;;;;;;9.77;3.10;;;;;;;;;;5094379;28;20020;-89
2021/09/29 01:05:46;;;;;;;9.02;3.20;;;;;;;;;;5076289;28;20027;-90
2021/09/29 01:08:13;;;;;;;7.40;3.33;;;;;;;;;;5075557;28;20044;-89
2021/09/29 01:10:42;;;;;;;6.72;2.53;;;;;;;;;;5094510;28;20012;-89
2021/09/29 01:13:13;;;;;;;12.57;3.08;;;;;;;;;;5094220;28;20420;-89
2021/09/29 01:15:44;;;;;;;6.25;2.80;;;;;;;;;;5075968;28;20016;-89
2021/09/29 01:18:11;;;;;;;7.38;2.88;;;;;;;;;;5075944;28;20094;-89
2021/09/29 01:20:43;;;;;;;9.70;3.25;;;;;;;;;;5075358;28;20050;-89
2021/09/29 01:23:27;;;;;;;12.68;3.85;;;;;;;;;;5075970;28;20016;-89
2021/09/29 01:25:58;;;;;;;4.97;2.33;;;;;;;;;;5075211;28;20029;-89
2021/09/29 01:28:32;;;;;;;7.70;2.97;;;;;;;;;;5086450;28;20024;-90
2021/09/29 01:30:58;;;;;;;5.90;2.45;;;;;;;;;;5093733;28;20019;-89
2021/09/29 01:33:24;;;;;;;9.02;2.58;;;;;;;;;;5093638;28;20089;-89
2021/09/29 01:35:49;;;;;;;6.32;2.58;;;;;;;;;;5075336;28;20103;-90
2021/09/29 01:38:15;;;;;;;5.03;2.60;;;;;;;;;;5109419;28;20111;-89
2021/09/29 01:40:40;;;;;;;7.57;2.97;;;;;;;;;;5075173;28;20027;-89
2021/09/29 01:43:05;;;;;;;4.75;2.40;;;;;;;;;;5075334;28;20114;-90
2021/09/29 01:45:31;;;;;;;4.80;2.10;;;;;;;;;;5075433;28;20471;-89
2021/09/29 01:47:56;;;;;;;5.18;2.15;;;;;;;;;;5093065;28;20020;-89
2021/09/29 01:50:23;;;;;;;5.32;2.22;;;;;;;;;;5075436;28;20027;-90
2021/09/29 01:52:49;;;;;;;8.75;2.55;;;;;;;;;;5075120;28;20375;-89
2021/09/29 01:55:18;;;;;;;4.03;2.17;;;;;;;;;;5075336;28;20035;-89
2021/09/29 01:57:47;;;;;;;7.57;2.33;;;;;;;;;;5075062;28;20024;-90
2021/09/29 02:00:15;;;;;;;12.30;2.53;;;;;;;;;;5075423;28;20024;-90
2021/09/29 02:02:42;;;;;;;9.07;2.55;;;;;;;;;;5075073;28;20028;-90
2021/09/29 02:05:07;;;;;;;4.82;2.25;;;;;;;;;;5074821;28;20016;-90
2021/09/29 02:07:32;;;;;;;5.35;2.10;;;;;;;;;;5074554;28;20085;-90
2021/09/29 02:09:58;;;;;;;7.30;2.28;;;;;;;;;;5074739;28;20066;-90
2021/09/29 02:12:23;;;;;;;6.50;2.30;;;;;;;;;;5075114;28;20028;-89
2021/09/29 02:14:48;;;;;;;4.00;2.05;;;;;;;;;;5074504;28;20447;-89
2021/09/29 02:17:13;;;;;;;6.53;2.95;;;;;;;;;;5074257;28;20031;-89
2021/09/29 02:19:39;;;;;;;11.90;2.63;;;;;;;;;;5108294;28;20489;-88
2021/09/29 02:22:04;;;;;;;5.55;2.45;;;;;;;;;;5092910;28;20043;-89
2021/09/29 02:24:29;;;;;;;3.53;2.13;;;;;;;;;;5074915;28;20455;-89
2021/09/29 02:26:54;;;;;;;9.70;2.03;;;;;;;;;;5074096;28;20460;-90
2021/09/29 02:29:20;;;;;;;5.45;1.90;;;;;;;;;;5092589;28;20016;-89
2021/09/29 02:31:45;;;;;;;4.45;1.60;;;;;;;;;;5074391;28;20023;-89
2021/09/29 02:34:10;;;;;;;2.50;1.70;;;;;;;;;;5073625;28;20020;-89
2021/09/29 02:36:36;;;;;;;7.07;2.05;;;;;;;;;;5073615;28;20031;-90
2021/09/29 02:39:01;;;;;;;4.50;2.08;;;;;;;;;;5107838;28;20451;-89
2021/09/29 02:41:27;;;;;;;3.20;1.92;;;;;;;;;;5074913;28;20044;-89
2021/09/29 02:43:52;;;;;;;8.65;2.10;;;;;;;;;;5074194;28;20020;-89
2021/09/29 02:46:17;;;;;;;4.25;1.73;;;;;;;;;;5092272;28;20376;-89
2021/09/29 02:48:43;;;;;;;4.28;1.88;;;;;;;;;;5073697;28;20040;-89
2021/09/29 02:51:08;;;;;;;3.22;1.80;;;;;;;;;;5108083;28;20016;-89
2021/09/29 02:53:33;;;;;;;9.18;2.00;;;;;;;;;;5073906;28;20059;-89
2021/09/29 02:56:00;;;;;;;4.18;2.10;;;;;;;;;;5073987;28;20093;-89
2021/09/29 02:58:25;;;;;;;5.70;1.95;;;;;;;;;;5073725;28;20486;-89
2021/09/29 03:00:51;;;;;;;4.00;1.88;;;;;;;;;;5074243;28;20028;-89
2021/09/29 03:03:17;;;;;;;6.88;1.90;;;;;;;;;;5074156;28;20043;-89
2021/09/29 03:05:42;;;;;;;4.40;1.58;;;;;;;;;;5074536;28;20024;-89
2021/09/29 03:08:07;;;;;;;6.05;1.73;;;;;;;;;;5073675;28;20020;-89
2021/09/29 03:10:35;;;;;;;5.38;1.80;;;;;;;;;;5108046;28;20020;-89
2021/09/29 03:13:00;;;;;;;8.38;2.17;;;;;;;;;;5073464;28;20035;-89
2021/09/29 03:15:25;;;;;;;7.50;1.73;;;;;;;;;;5092001;28;20016;-89
2021/09/29 03:17:51;;;;;;;5.78;1.60;;;;;;;;;;5073915;28;20481;-89
2021/09/29 03:20:16;;;;;;;2.08;1.45;;;;;;;;;;5073384;28;20026;-89
2021/09/29 03:22:41;;;;;;;3.72;1.67;;;;;;;;;;5091590;28;20020;-90
2021/09/29 03:25:06;;;;;;;2.92;1.50;;;;;;;;;;5073687;28;20383;-89
2021/09/29 03:27:32;;;;;;;7.70;1.80;;;;;;;;;;5073461;28;20024;-89
2021/09/29 03:29:57;;;;;;;5.22;1.70;;;;;;;;;;5073375;28;20019;-89
2021/09/29 03:32:22;;;;;;;4.47;1.58;;;;;;;;;;5073887;28;20070;-89
2021/09/29 03:34:47;;;;;;;3.53;1.35;;;;;;;;;;5107712;28;20020;-89
2021/09/29 03:37:12;;;;;;;5.50;1.52;;;;;;;;;;5073109;28;20020;-89
2021/09/29 03:39:38;;;;;;;5.88;2.13;;;;;;;;;;5107418;28;20012;-89
2021/09/29 03:42:03;;;;;;;4.88;1.60;;;;;;;;;;5073479;28;20020;-89
2021/09/29 03:44:28;;;;;;;5.10;1.55;;;;;;;;;;5075207;28;20012;-89
2021/09/29 03:46:54;;;;;;;4.63;1.40;;;;;;;;;;5077331;28;20030;-89
2021/09/29 03:49:19;;;;;;;2.95;1.30;;;;;;;;;;5111420;28;20085;-89
2021/09/29 03:51:44;;;;;;;5.05;1.65;;;;;;;;;;5095727;28;20077;-89
2021/09/29 03:54:09;;;;;;;4.18;1.48;;;;;;;;;;5097310;28;20056;-89
2021/09/29 03:56:35;;;;;;;5.53;1.60;;;;;;;;;;5076599;28;20027;-89
2021/09/29 03:59:00;;;;;;;3.30;1.40;;;;;;;;;;5077429;28;20023;-89
2021/09/29 04:01:25;;;;;;;5.95;1.40;;;;;;;;;;5077182;28;20052;-89
2021/09/29 04:03:50;;;;;;;4.60;1.58;;;;;;;;;;5077154;28;20012;-89
2021/09/29 04:06:16;;;;;;;2.72;1.33;;;;;;;;;;5095047;28;20102;-89
2021/09/29 04:08:41;;;;;;;3.97;1.52;;;;;;;;;;5076636;28;20019;-89
2021/09/29 04:11:09;;;;;;;7.00;1.85;;;;;;;;;;5076975;28;20039;-89
2021/09/29 04:13:34;;;;;;;3.13;1.40;;;;;;;;;;5076750;28;20019;-90
2021/09/29 04:16:00;;;;;;;3.90;1.52;;;;;;;;;;5076772;28;20470;-89
2021/09/29 04:18:25;;;;;;;6.30;1.70;;;;;;;;;;5076461;28;20039;-89
2021/09/29 04:20:50;;;;;;;10.48;1.50;;;;;;;;;;5076757;28;20008;-89
2021/09/29 04:23:16;;;;;;;6.05;2.08;;;;;;;;;;5076485;28;20077;-89
2021/09/29 04:25:41;;;;;;;6.68;1.40;;;;;;;;;;5076830;28;20035;-89
2021/09/29 04:28:07;;;;;;;4.68;1.40;;;;;;;;;;5076855;28;20115;-89
2021/09/29 04:30:32;;;;;;;6.07;1.33;;;;;;;;;;5094716;28;20016;-89
2021/09/29 04:32:59;;;;;;;2.38;1.08;;;;;;;;;;5076725;28;20031;-89
2021/09/29 04:35:24;;;;;;;4.30;1.05;;;;;;;;;;5076615;28;20028;-89
2021/09/29 04:37:49;;;;;;;10.13;1.60;;;;;;;;;;5094680;28;20068;-89
2021/09/29 04:40:14;;;;;;;5.22;1.30;;;;;;;;;;5094884;28;20012;-89
2021/09/29 04:42:40;;;;;;;5.82;1.50;;;;;;;;;;5094666;28;20367;-89
2021/09/29 04:45:06;;;;;;;2.45;1.17;;;;;;;;;;5076704;28;20061;-89
2021/09/29 04:47:31;;;;;;;5.50;1.50;;;;;;;;;;5076248;28;20538;-89
2021/09/29 04:49:57;;;;;;;4.72;1.65;;;;;;;;;;5076594;28;20016;-89
2021/09/29 04:52:24;;;;;;;6.53;2.13;;;;;;;;;;5076381;28;20012;-89
2021/09/29 04:54:49;;;;;;;4.88;1.65;;;;;;;;;;5076484;28;20028;-89
2021/09/29 04:57:14;;;;;;;4.10;1.33;;;;;;;;;;5093308;28;20020;-89
2021/09/29 04:59:39;;;;;;;4.00;1.27;;;;;;;;;;5094827;28;20016;-89
2021/09/29 05:02:05;;;;;;;4.70;1.40;;;;;;;;;;5094762;28;20016;-89
2021/09/29 05:04:30;;;;;;;13.98;1.52;;;;;;;;;;5076485;28;20472;-89
2021/09/29 05:06:55;;;;;;;4.03;1.40;;;;;;;;;;5093737;28;20020;-89
2021/09/29 05:09:21;;;;;;;8.38;1.67;;;;;;;;;;5076072;28;20066;-89
2021/09/29 05:11:48;;;;;;;8.07;1.23;;;;;;;;;;5076067;28;20495;-89
2021/09/29 05:14:16;;;;;;;3.35;1.17;;;;;;;;;;5094274;28;20035;-89
2021/09/29 05:16:41;;;;;;;7.22;1.25;;;;;;;;;;5075743;28;20020;-89
2021/09/29 05:19:07;;;;;;;6.72;1.33;;;;;;;;;;5075943;28;20016;-89
2021/09/29 05:21:32;;;;;;;5.28;1.25;;;;;;;;;;5109671;28;20115;-89
2021/09/29 05:23:57;;;;;;;4.13;1.40;;;;;;;;;;5075650;28;20024;-89
2021/09/29 05:26:22;;;;;;;6.75;1.27;;;;;;;;;;5093617;28;20387;-89
2021/09/29 05:28:50;;;;;;;4.28;1.55;;;;;;;;;;5075707;28;20020;-89
2021/09/29 05:31:15;;;;;;;4.90;1.35;;;;;;;;;;5093847;28;20383;-88
2021/09/29 05:33:40;;;;;;;6.72;1.92;;;;;;;;;;5075371;28;20031;-88
2021/09/29 05:36:05;;;;;;;6.55;1.70;;;;;;;;;;5109418;28;20031;-88
2021/09/29 05:38:31;;;;;;;8.07;2.10;;;;;;;;;;5109130;28;20016;-88
2021/09/29 05:40:56;;;;;;;7.30;1.98;;;;;;;;;;5075700;28;20012;-89
2021/09/29 05:43:21;;;;;;;6.32;1.83;;;;;;;;;;5109180;28;20103;-89
2021/09/29 05:45:46;;;;;;;6.55;1.95;;;;;;;;;;5093382;28;20065;-88
2021/09/29 05:48:12;;;;;;;3.22;1.00;;;;;;;;;;5093003;28;20069;-88
2021/09/29 05:50:37;;;;;;;5.82;1.55;;;;;;;;;;5074917;28;20046;-89
2021/09/29 05:53:03;;;;;;;5.68;1.40;;;;;;;;;;5109183;28;20020;-88
2021/09/29 05:55:28;;;;;;;5.60;1.45;;;;;;;;;;5074819;28;20030;-87
2021/09/29 05:57:53;;;;;;;2.60;1.17;;;;;;;;;;5074060;28;20107;-88
2021/09/29 06:00:18;;;;;;;3.58;1.02;;;;;;;;;;5108692;28;20378;-87
2021/09/29 06:02:44;;;;;;;6.07;1.33;;;;;;;;;;5074816;28;20073;-87
2021/09/29 06:05:09;;;;;;;5.50;1.55;;;;;;;;;;5092909;28;20008;-88
2021/09/29 06:07:34;;;;;;;6.50;2.80;;;;;;;;;;5073832;28;20490;-88
2021/09/29 06:09:59;;;;;;;5.63;2.30;;;;;;;;;;5092621;28;20478;-88
2021/09/29 06:12:25;;;;;;;8.70;2.53;;;;;;;;;;5093006;28;20016;-88
2021/09/29 06:14:52;;;;;;;9.15;1.95;;;;;;;;;;5074427;28;20437;-88
2021/09/29 06:17:24;;;;;;;5.35;1.42;;;;;;;;;;5074005;28;20107;-87
2021/09/29 06:19:50;;;;;;;5.78;1.98;;;;;;;;;;5092831;28;20477;-88
2021/09/29 06:22:15;;;;;;;3.50;1.40;;;;;;;;;;5074604;28;20051;-87
2021/09/29 06:24:41;;;;;;;9.30;1.52;;;;;;;;;;5098620;28;20403;-87
2021/09/29 06:27:07;;;;;;;3.55;1.25;;;;;;;;;;5074610;28;20202;-87
2021/09/29 06:29:32;;;;;;;16.67;2.25;;;;;;;;;;5075346;28;20545;-87
2021/09/29 06:31:58;;;;;;;5.00;1.40;;;;;;;;;;5092591;28;20035;-87
2021/09/29 06:34:23;;;;;;;4.63;1.88;;;;;;;;;;5075016;28;20027;-87
2021/09/29 06:36:48;;;;;;;7.35;1.70;;;;;;;;;;5075087;28;20458;-87
2021/09/29 06:39:14;;;;;;;6.22;2.10;;;;;;;;;;5075312;28;20048;-87
2021/09/29 06:41:41;;;;;;;6.07;1.63;;;;;;;;;;5093652;28;20095;-87
2021/09/29 06:44:06;;;;;;;10.00;1.85;;;;;;;;;;5075270;28;20103;-88
2021/09/29 06:46:32;;;;;;;4.30;1.90;;;;;;;;;;5075354;28;20099;-87
2021/09/29 06:48:57;;;;;;;8.88;1.73;;;;;;;;;;5075309;28;20085;-87
2021/09/29 06:51:22;;;;;;;6.65;2.30;;;;;;;;;;5093478;28;20363;-88
2021/09/29 06:53:47;;;;;;;6.30;1.67;;;;;;;;;;5093068;28;20032;-87
2021/09/29 06:56:12;;;;;;;3.85;1.42;;;;;;;;;;5075183;28;20031;-88
2021/09/29 06:58:38;;;;;;;4.22;1.48;;;;;;;;;;5074853;28;20417;-87
2021/09/29 07:01:03;;;;;;;6.72;1.50;;;;;;;;;;5093077;28;20118;-87
2021/09/29 07:03:31;;;;;;;8.98;1.88;;;;;;;;;;5092676;28;20016;-87
2021/09/29 07:05:57;;;;;;;4.63;2.08;;;;;;;;;;5074693;28;20019;-88
2021/09/29 07:08:23;;;;;;;6.90;2.40;;;;;;;;;;5093138;28;20019;-88
2021/09/29 07:10:48;;;;;;;6.63;1.55;;;;;;;;;;5093087;28;20020;-88
2021/09/29 07:13:13;;;;;;;3.65;1.30;;;;;;;;;;5092859;28;20035;-87
2021/09/29 07:15:39;;;;;;;3.15;1.45;;;;;;;;;;5074677;28;20020;-88
2021/09/29 07:18:07;;;;;;;3.90;1.33;;;;;;;;;;5092784;28;20065;-87
2021/09/29 07:20:32;;;;;;;5.97;1.50;;;;;;;;;;5074828;28;20016;-88
2021/09/29 07:22:58;;;;;;;1.75;1.10;;;;;;;;;;5092989;28;20112;-87
2021/09/29 07:25:23;;;;;;;5.68;1.55;;;;;;;;;;5074521;28;20066;-87
2021/09/29 07:27:49;;;;;;;1.75;1.10;;;;;;;;;;5074382;28;20024;-87
2021/09/29 07:30:14;;;;;;;4.95;0.93;;;;;;;;;;5074397;28;20073;-87
2021/09/29 07:32:40;;;;;;;1.73;1.00;;;;;;;;;;5074960;28;20103;-88
2021/09/29 07:35:05;;;;;;;4.38;0.90;;;;;;;;;;5092611;28;20043;-88
2021/09/29 07:37:30;;;;;;;3.03;1.30;;;;;;;;;;5074990;28;20016;-87
2021/09/29 07:39:56;;;;;;;2.38;0.90;;;;;;;;;;5108384;28;20452;-88
2021/09/29 07:42:21;;;;;;;3.83;0.80;;;;;;;;;;5092719;28;20020;-88
2021/09/29 07:44:46;;;;;;;1.63;0.63;;;;;;;;;;5073717;28;20370;-87
2021/09/29 07:47:11;;;;;;;1.67;0.50;;;;;;;;;;5074190;28;20031;-88
2021/09/29 07:49:37;;;;;;;1.40;0.60;;;;;;;;;;5074747;28;20016;-86
2021/09/29 07:52:02;;;;;;;5.18;1.73;;;;;;;;;;5074576;28;20548;-87
2021/09/29 07:54:27;;;;;;;1.88;0.50;;;;;;;;;;5073952;28;20031;-88
2021/09/29 07:56:54;;;;;;;3.38;0.70;;;;;;;;;;5074019;28;20721;-88
2021/09/29 07:59:19;;;;;;;2.00;0.50;;;;;;;;;;5092384;28;20482;-87
2021/09/29 08:01:44;;;;;;;0.90;0.43;;;;;;;;;;5072618;28;20044;-87
2021/09/29 08:04:10;;;;;;;3.40;0.70;;;;;;;;;;5106795;28;20099;-88
2021/09/29 08:06:35;;;;;;;0.93;0.40;;;;;;;;;;5092041;28;20352;-88
2021/09/29 08:09:00;;;;;;;3.03;0.68;;;;;;;;;;5073977;28;20051;-88
2021/09/29 08:11:25;;;;;;;3.30;0.63;;;;;;;;;;5091267;28;20039;-88
2021/09/29 08:13:51;;;;;;;1.33;0.47;;;;;;;;;;5092397;28;20027;-87
2021/09/29 08:16:16;;;;;;;1.20;0.50;;;;;;;;;;5091168;28;20052;-88
2021/09/29 08:18:41;;;;;;;3.38;0.50;;;;;;;;;;5074172;28;20091;-89
2021/09/29 08:21:13;;;;;;;1.05;0.43;;;;;;;;;;5073099;28;20468;-88
2021/09/29 08:23:40;;;;;;;2.65;0.73;;;;;;;;;;5091785;28;20016;-88
2021/09/29 08:31:44;;;;;;;2.13;0.85;;;;;;;;;;5072185;28;20513;-88
2021/09/29 08:34:18;;;;;;;1.73;0.57;;;;;;;;;;5074544;28;20035;-88
2021/09/29 08:36:50;;;;;;;2.30;0.40;;;;;;;;;;5072096;28;20016;-87
2021/09/29 08:41:55;;;;;;;1.80;0.40;;;;;;;;;;5095031;28;20027;-89
2021/09/29 08:52:06;;;;;;;0.55;0.40;;;;;;;;;;5095395;28;20016;-88
2021/09/29 08:57:39;;;;;;;5.20;0.70;;;;;;;;;;5094646;28;20020;-88
2021/09/29 09:16:32;;;;;;;0.93;0.30;;;;;;;;;;5094851;28;20068;-88
2021/09/29 09:18:58;;;;;;;0.70;0.40;;;;;;;;;;5076414;28;20008;-88
2021/09/29 09:21:23;;;;;;;1.88;0.63;;;;;;;;;;5093749;28;20116;-89
2021/09/29 09:23:49;;;;;;;2.15;0.95;;;;;;;;;;5068432;28;20012;-88
2021/09/29 09:26:14;;;;;;;1.75;0.80;;;;;;;;;;5077214;28;20020;-89
2021/09/29 09:28:39;;;;;;;0.93;0.80;;;;;;;;;;5077111;28;20015;-88
2021/09/29 09:31:12;;;;;;;3.80;1.10;;;;;;;;;;5076665;28;20463;-89
2021/09/29 09:33:46;;;;;;;1.95;0.98;;;;;;;;;;5109405;28;20509;-89
2021/09/29 09:36:12;;;;;;;3.35;1.40;;;;;;;;;;5094830;28;20456;-89
2021/09/29 09:38:41;;;;;;;5.05;1.15;;;;;;;;;;5078117;28;20045;-89
2021/09/29 09:41:06;;;;;;;12.70;1.30;;;;;;;;;;5087329;28;20020;-89
2021/09/29 09:43:31;;;;;;;3.65;1.50;;;;;;;;;;5098696;28;20104;-89
2021/09/29 09:45:58;;;;;;;3.97;1.35;;;;;;;;;;5094177;28;20012;-90
2021/09/29 09:48:27;;;;;;;4.32;1.50;;;;;;;;;;5074077;28;20076;-89
2021/09/29 09:51:05;;;;;;;5.25;1.70;;;;;;;;;;5076429;28;20016;-89
2021/09/29 09:53:31;;;;;;;2.25;1.50;;;;;;;;;;5093335;28;20056;-88
2021/09/29 09:55:56;;;;;;;4.45;1.92;;;;;;;;;;5081442;28;20482;-88
2021/09/29 09:58:22;;;;;;;4.07;1.45;;;;;;;;;;5075723;28;20016;-88
2021/09/29 10:00:47;;;;;;;3.58;1.92;;;;;;;;;;5076123;28;20019;-87
2021/09/29 10:03:12;;;;;;;6.32;1.70;;;;;;;;;;5076641;28;20019;-89
2021/09/29 10:05:41;;;;;;;7.20;1.90;;;;;;;;;;5076286;28;20031;-89
2021/09/29 10:08:08;;;;;;;3.65;1.85;;;;;;;;;;5076379;28;20101;-88
2021/09/29 10:27:14;;;;;;;1.90;1.30;;;;;;;;;;5092971;28;20024;-88
2021/09/29 10:29:45;;;;;;;5.40;1.52;;;;;;;;;;5094302;28;20036;-88
2021/09/29 10:35:13;;;;;;;5.45;1.25;;;;;;;;;;5094263;28;20028;-88
2021/09/29 10:37:50;;;;;;;2.85;1.30;;;;;;;;;;5063903;28;20023;-88
2021/09/29 10:40:33;;;;;;;2.10;1.10;;;;;;;;;;5077533;28;20016;-87
2021/09/29 10:43:01;;;;;;;4.22;1.17;;;;;;;;;;5079475;28;20028;-88
2021/09/29 10:45:47;;;;;;;1.77;0.90;;;;;;;;;;5093637;28;20048;-88
2021/09/29 10:48:44;;;;;;;3.03;1.10;;;;;;;;;;5078614;28;20073;-88
2021/09/29 11:30:25;;;;;;;1.30;0.40;;;;;;;;;;5098874;28;20021;-85
2021/09/29 11:32:59;;;;;;;1.48;0.50;;;;;;;;;;5093277;28;20356;-86
2021/09/29 11:49:31;;;;;;;8.77;1.00;;;;;;;;;;5091877;28;20023;-85
2021/09/29 12:08:31;;;;;;;5.65;0.95;;;;;;;;;;5096233;28;20031;-86
2021/09/29 12:11:39;;;;;;;2.13;0.60;;;;;;;;;;5078584;28;20012;-85
2021/09/29 12:14:05;;;;;;;5.20;0.70;;;;;;;;;;5086960;28;20331;-86
2021/09/29 12:16:35;;;;;;;5.70;1.13;;;;;;;;;;5081233;28;20115;-85
2021/09/29 12:19:01;;;;;;;5.00;1.15;;;;;;;;;;5103233;28;20095;-85
2021/09/29 12:21:31;;;;;;;2.50;0.73;;;;;;;;;;5077652;28;20131;-85
2021/09/29 12:23:58;;;;;;;3.60;0.80;;;;;;;;;;5084252;28;20022;-85
2021/09/29 12:26:26;;;;;;;5.80;0.85;;;;;;;;;;5090724;28;20023;-86
2021/09/29 12:29:15;;;;;;;0.80;0.70;;;;;;;;;;5078650;28;20502;-86
2021/09/29 12:34:20;;;;;;;1.17;0.70;;;;;;;;;;5100202;28;20020;-86
2021/09/29 12:36:45;;;;;;;4.75;0.90;;;;;;;;;;5073900;28;20016;-85
2021/09/29 12:39:21;;;;;;;3.40;0.70;;;;;;;;;;5096009;28;20436;-86
2021/09/29 12:41:50;;;;;;;3.53;0.70;;;;;;;;;;5077769;28;20065;-86
2021/09/29 12:44:17;;;;;;;2.13;0.60;;;;;;;;;;5065460;28;20027;-86
2021/09/29 12:46:45;;;;;;;2.33;0.80;;;;;;;;;;5083860;28;20387;-86
2021/09/29 12:49:15;;;;;;;7.90;0.80;;;;;;;;;;5087622;28;20472;-86
2021/09/29 12:51:42;;;;;;;4.85;0.82;;;;;;;;;;5094463;28;20023;-86
2021/09/29 12:54:08;;;;;;;7.43;0.85;;;;;;;;;;5076198;28;20103;-86
2021/09/29 12:56:36;;;;;;;5.28;0.80;;;;;;;;;;5097461;28;20026;-85
2021/09/29 12:59:02;;;;;;;1.58;0.80;;;;;;;;;;5109580;28;20469;-86
2021/09/29 13:01:27;;;;;;;1.85;0.50;;;;;;;;;;5086274;28;20028;-86
2021/09/29 13:03:52;;;;;;;6.20;0.88;;;;;;;;;;5090083;28;20085;-86
2021/09/29 13:06:17;;;;;;;3.33;0.90;;;;;;;;;;5086947;28;20024;-86
2021/09/29 13:08:42;;;;;;;3.88;0.75;;;;;;;;;;5080839;28;20073;-86
2021/09/29 13:11:08;;;;;;;5.07;0.70;;;;;;;;;;5080674;28;20111;-85
2021/09/29 13:13:35;;;;;;;1.92;0.52;;;;;;;;;;5078005;28;20530;-86
2021/09/29 13:16:01;;;;;;;2.38;0.60;;;;;;;;;;5106955;28;20028;-87
2021/09/29 13:21:10;;;;;;;1.23;0.43;;;;;;;;;;5098539;28;20429;-86
2021/09/29 13:23:39;;;;;;;5.63;0.80;;;;;;;;;;5074973;28;20047;-86
2021/09/29 13:37:11;;;;;;;1.88;0.60;;;;;;;;;;5092806;28;20020;-86
2021/09/29 13:39:36;;;;;;;3.45;0.40;;;;;;;;;;5076786;28;20020;-86
2021/09/29 13:42:02;;;;;;;2.38;0.38;;;;;;;;;;5069655;28;20025;-85
2021/09/29 13:44:27;;;;;;;1.27;0.30;;;;;;;;;;5073112;28;20035;-86
2021/09/29 13:46:52;;;;;;;4.38;0.52;;;;;;;;;;5076226;28;20027;-86
2021/09/29 13:49:18;;;;;;;1.77;0.35;;;;;;;;;;5094435;28;20012;-86
2021/09/29 13:51:50;;;;;;;2.35;0.60;;;;;;;;;;5076308;28;20009;-86
2021/09/29 13:54:18;;;;;;;2.35;0.40;;;;;;;;;;5076231;28;20472;-86
2021/09/29 13:56:48;;;;;;;1.33;0.40;;;;;;;;;;5094367;28;20023;-86
2021/09/29 14:29:21;;;;;;;6.25;0.75;;;;;;;;;;5094028;28;20426;-86
2021/09/29 14:31:50;;;;;;;4.38;0.40;;;;;;;;;;5075585;28;20383;-87
2021/09/29 14:34:15;;;;;;;0.80;0.17;;;;;;;;;;5075524;28;20019;-86
2021/09/29 14:36:41;;;;;;;1.55;0.25;;;;;;;;;;5075449;28;20073;-86
2021/09/29 14:39:06;;;;;;;1.42;0.43;;;;;;;;;;5075176;28;20035;-86
2021/09/29 14:41:31;;;;;;;1.38;0.38;;;;;;;;;;5075086;28;20418;-86
2021/09/29 14:43:57;;;;;;;3.75;0.25;;;;;;;;;;5075031;28;20028;-86
2021/09/29 14:46:22;;;;;;;1.50;0.40;;;;;;;;;;5109114;28;20032;-86
2021/09/29 14:48:47;;;;;;;5.55;0.60;;;;;;;;;;5075112;28;20023;-86
2021/09/29 14:51:12;;;;;;;7.07;0.60;;;;;;;;;;5075144;28;20027;-86
2021/09/29 14:53:38;;;;;;;1.45;0.40;;;;;;;;;;5093261;28;20053;-86
2021/09/29 14:56:04;;;;;;;5.70;0.52;;;;;;;;;;5093138;28;20051;-86
2021/09/29 14:58:31;;;;;;;1.50;0.22;;;;;;;;;;5075558;28;20044;-87
2021/09/29 15:00:56;;;;;;;7.53;0.50;;;;;;;;;;5075149;28;20028;-86
2021/09/29 15:03:22;;;;;;;1.63;0.50;;;;;;;;;;5074761;28;20058;-86
2021/09/29 15:05:48;;;;;;;4.95;0.40;;;;;;;;;;5093202;28;20103;-86
2021/09/29 15:08:13;;;;;;;2.38;0.30;;;;;;;;;;5074618;28;20474;-86
2021/09/29 15:10:38;;;;;;;4.93;0.45;;;;;;;;;;5093258;28;20444;-87
2021/09/29 15:13:05;;;;;;;1.48;0.50;;;;;;;;;;5074936;28;20028;-87
2021/09/29 15:15:33;;;;;;;2.30;0.50;;;;;;;;;;5075140;28;20023;-86
2021/09/29 15:18:22;;;;;;;1.20;0.40;;;;;;;;;;5108460;28;20027;-87
2021/09/29 15:47:21;;;;;;;2.35;0.45;;;;;;;;;;5095750;28;20104;-87
2021/09/29 15:57:25;;;;;;;3.25;0.52;;;;;;;;;;5095565;28;20078;-87
2021/09/29 16:00:04;;;;;;;;;;;;;;;;;;5078135;28;20120;-87
2021/09/29 16:02:41;;;;;;;2.13;0.40;;;;;;;;;;5077957;28;19994;-86
2021/09/29 16:16:45;;;;;;;1.15;0.30;;;;;;;;;;5095200;28;20066;-87
2021/09/29 16:24:01;;;;;;;1.00;0.40;;;;;;;;;;5094921;28;20474;-87
2021/09/29 16:32:21;;;;;;;3.10;0.40;;;;;;;;;;5094975;28;20054;-87
2021/09/29 16:34:59;;;;;;;4.32;0.40;;;;;;;;;;5076742;28;20016;-87
2021/09/29 16:37:25;;;;;;;4.13;0.65;;;;;;;;;;5095061;28;20082;-87
2021/09/29 16:39:50;;;;;;;1.90;0.30;;;;;;;;;;5094962;28;20032;-87
2021/09/29 16:42:16;;;;;;;1.45;0.38;;;;;;;;;;5094766;28;20484;-87
2021/09/29 16:44:42;;;;;;;2.80;0.60;;;;;;;;;;5110518;28;20025;-87
2021/09/29 16:47:07;;;;;;;5.07;0.70;;;;;;;;;;5076284;28;20076;-87
2021/09/29 16:49:32;;;;;;;7.35;0.68;;;;;;;;;;5076716;28;20016;-86
2021/09/29 16:54:53;;;;;;;3.08;0.73;;;;;;;;;;5077477;28;20067;-87
2021/09/29 16:57:29;;;;;;;5.80;1.48;;;;;;;;;;5075904;28;20111;-87
2021/09/29 17:00:04;;;;;;;4.75;1.27;;;;;;;;;;5076487;28;20410;-86
2021/09/29 17:02:29;;;;;;;5.72;1.40;;;;;;;;;;5076687;28;20154;-86
2021/09/29 17:04:54;;;;;;;3.40;0.93;;;;;;;;;;5094103;28;20488;-87
2021/09/29 17:07:20;;;;;;;1.38;0.50;;;;;;;;;;5075820;28;20024;-87
2021/09/29 17:09:45;;;;;;;6.75;0.77;;;;;;;;;;5075483;28;20047;-87
2021/09/29 17:12:12;;;;;;;2.38;0.52;;;;;;;;;;5094149;28;20020;-87
2021/09/29 17:14:37;;;;;;;2.45;0.55;;;;;;;;;;5076116;28;20459;-87
2021/09/29 17:17:02;;;;;;;2.42;0.50;;;;;;;;;;5076240;28;20026;-87
2021/09/29 17:19:28;;;;;;;2.78;0.63;;;;;;;;;;5076236;28;20429;-87
2021/09/29 17:21:57;;;;;;;3.17;0.60;;;;;;;;;;5093906;28;20020;-87
2021/09/29 17:24:23;;;;;;;4.53;0.50;;;;;;;;;;5075739;28;20027;-87
2021/09/29 17:26:49;;;;;;;2.40;0.75;;;;;;;;;;5075494;28;20028;-87
2021/09/29 17:29:16;;;;;;;7.53;0.93;;;;;;;;;;5075414;28;20026;-86
2021/09/29 17:52:56;;;;;;;1.65;0.55;;;;;;;;;;5080446;28;20019;-86
2021/09/29 17:55:21;;;;;;;2.00;0.50;;;;;;;;;;5075021;28;20020;-87
2021/09/29 17:57:47;;;;;;;4.88;0.70;;;;;;;;;;5075051;28;20027;-86
2021/09/29 18:00:13;;;;;;;2.97;0.70;;;;;;;;;;5074755;28;20020;-86
2021/09/29 18:02:47;;;;;;;1.00;0.68;;;;;;;;;;5074696;28;20020;-86
2021/09/29 18:06:10;;;;;;;1.60;0.50;;;;;;;;;;5074681;28;20016;-87
2021/09/29 18:07:58;;;;;;;2.60;0.80;;;;;;;;;;5085275;28;20126;-87
2021/09/29 18:10:23;;;;;;;2.85;0.80;;;;;;;;;;5074378;28;20103;-88
2021/09/29 18:12:49;;;;;;;2.47;0.85;;;;;;;;;;5074832;28;20043;-87
2021/09/29 18:15:15;;;;;;;1.25;0.57;;;;;;;;;;5074063;28;20449;-87
2021/09/29 18:17:40;;;;;;;4.20;1.00;;;;;;;;;;5075177;28;20028;-87
2021/09/29 18:20:07;;;;;;;4.30;0.88;;;;;;;;;;5074806;28;20008;-87
2021/09/29 18:22:32;;;;;;;2.78;0.57;;;;;;;;;;5074758;28;20028;-87
2021/09/29 18:24:57;;;;;;;3.60;0.70;;;;;;;;;;5074132;28;20374;-87
2021/09/29 18:27:23;;;;;;;4.05;0.95;;;;;;;;;;5074545;28;20031;-87
2021/09/29 18:29:48;;;;;;;4.95;0.88;;;;;;;;;;5074321;28;20102;-88
2021/09/29 18:32:13;;;;;;;2.53;0.80;;;;;;;;;;5073986;28;20016;-87
2021/09/29 18:34:40;;;;;;;4.18;0.90;;;;;;;;;;5074911;28;20379;-87
2021/09/29 18:37:06;;;;;;;3.33;1.40;;;;;;;;;;5092308;28;20012;-87
2021/09/29 18:39:32;;;;;;;6.20;0.93;;;;;;;;;;5074553;28;20032;-87
2021/09/29 18:41:58;;;;;;;1.05;0.88;;;;;;;;;;5074902;28;20039;-87
2021/09/29 18:44:23;;;;;;;4.55;0.90;;;;;;;;;;5108565;28;20487;-87
2021/09/29 18:46:48;;;;;;;2.75;0.80;;;;;;;;;;5108483;28;20032;-87
2021/09/29 18:49:15;;;;;;;1.33;0.68;;;;;;;;;;5092941;28;20100;-87
2021/09/29 18:51:43;;;;;;;1.65;0.70;;;;;;;;;;5074589;28;20339;-87